Time;durP1;ratioP1;P1;durP2;ratioP2;P2;SDS_P1;SDS_P2;PMS_P1;PMS_P2;Temp;Humidity;BMP_temperature;BMP_pressure;BME280_temperature;BME280_humidity;BME280_pressure;Samples;Min_cycle;Max_cycle;Signal;HPM_P1;HPM_P2
2023/05/10 00:02:23;;;;;;;0.50;0.30;;;14.00;99.90;;;;;;5026386;28;20228;-67
2023/05/10 00:04:52;;;;;;;0.73;0.52;;;13.90;99.90;;;;;;5023722;28;20197;-66
2023/05/10 00:07:20;;;;;;;0.50;0.30;;;13.90;99.90;;;;;;5026916;28;20212;-67
2023/05/10 00:09:47;;;;;;;0.60;0.40;;;14.00;99.90;;;;;;5028558;28;20240;-66
2023/05/10 00:12:15;;;;;;;0.50;0.40;;;14.00;99.90;;;;;;5025561;28;20247;-66
2023/05/10 00:14:43;;;;;;;0.60;0.50;;;14.10;99.90;;;;;;5036404;28;20306;-67
2023/05/10 00:17:12;;;;;;;0.50;0.40;;;14.10;99.90;;;;;;5035652;28;20242;-67
2023/05/10 00:19:40;;;;;;;0.50;0.30;;;14.10;99.90;;;;;;5050466;28;20211;-66
2023/05/10 00:22:08;;;;;;;0.50;0.35;;;14.00;99.90;;;;;;5026332;28;20307;-66
2023/05/10 00:24:36;;;;;;;0.60;0.40;;;14.10;99.90;;;;;;5028828;28;20212;-67
2023/05/10 00:27:04;;;;;;;0.50;0.30;;;14.00;99.90;;;;;;5026641;28;20227;-66
2023/05/10 00:29:33;;;;;;;0.50;0.30;;;14.10;99.90;;;;;;5017685;28;20209;-67
2023/05/10 00:32:01;;;;;;;0.50;0.30;;;14.10;99.90;;;;;;5026689;28;20290;-66
2023/05/10 00:34:30;;;;;;;0.50;0.30;;;14.10;99.90;;;;;;5024058;28;21940;-67
2023/05/10 00:36:58;;;;;;;0.50;0.40;;;14.10;99.90;;;;;;5026067;28;20644;-66
2023/05/10 00:39:28;;;;;;;0.77;0.40;;;14.10;99.90;;;;;;5024502;28;20290;-67
2023/05/10 00:41:56;;;;;;;0.50;0.30;;;14.10;99.90;;;;;;5026728;28;20665;-68
2023/05/10 00:44:24;;;;;;;0.50;0.40;;;14.20;99.90;;;;;;5029304;28;20270;-68
2023/05/10 00:46:52;;;;;;;0.50;0.40;;;14.00;99.90;;;;;;5028063;28;20255;-67
2023/05/10 00:49:21;;;;;;;0.60;0.40;;;14.10;99.90;;;;;;5025855;28;20204;-69
2023/05/10 00:51:50;;;;;;;0.50;0.40;;;14.00;99.90;;;;;;5031249;28;20782;-69
2023/05/10 00:54:18;;;;;;;0.50;0.30;;;14.00;99.90;;;;;;5031169;28;20200;-68
2023/05/10 00:56:48;;;;;;;0.50;0.40;;;13.90;99.90;;;;;;5032398;28;20278;-69
2023/05/10 00:59:17;;;;;;;0.50;0.40;;;14.10;99.90;;;;;;5028836;28;20208;-69
2023/05/10 01:01:45;;;;;;;0.50;0.40;;;14.30;99.90;;;;;;5029370;28;20637;-69
2023/05/10 01:04:14;;;;;;;0.60;0.40;;;14.30;99.90;;;;;;5030687;28;20652;-69
2023/05/10 01:06:43;;;;;;;0.50;0.30;;;14.30;99.90;;;;;;5026934;28;20239;-69
2023/05/10 01:09:12;;;;;;;0.50;0.30;;;14.30;99.90;;;;;;5030632;28;20238;-68
2023/05/10 01:11:41;;;;;;;0.60;0.40;;;14.30;99.90;;;;;;5044508;28;20306;-69
2023/05/10 01:14:09;;;;;;;0.50;0.40;;;14.30;99.90;;;;;;5034391;28;20294;-68
2023/05/10 01:16:39;;;;;;;0.50;0.40;;;14.20;99.90;;;;;;5041682;28;20205;-69
2023/05/10 01:19:11;;;;;;;0.50;0.40;;;14.20;99.90;;;;;;5051388;28;20242;-69
2023/05/10 01:21:49;;;;;;;0.50;0.40;;;14.20;99.90;;;;;;5052715;28;20266;-70
2023/05/10 01:24:59;;;;;;;0.52;0.40;;;14.20;99.90;;;;;;5029620;28;20767;-69
2023/05/10 01:27:48;;;;;;;0.60;0.40;;;14.40;99.90;;;;;;5030350;28;20204;-67
2023/05/10 01:30:45;;;;;;;0.50;0.30;;;14.50;99.90;;;;;;5027850;28;20296;-67
2023/05/10 01:33:18;;;;;;;0.60;0.40;;;14.50;99.90;;;;;;5028302;28;20571;-68
2023/05/10 01:35:56;;;;;;;0.50;0.30;;;14.50;99.90;;;;;;5026976;28;20614;-68
2023/05/10 01:38:31;;;;;;;0.60;0.50;;;14.60;99.90;;;;;;5031785;28;20679;-68
2023/05/10 01:41:09;;;;;;;0.50;0.40;;;14.60;99.90;;;;;;5025676;28;20354;-68
2023/05/10 01:43:45;;;;;;;0.55;0.43;;;14.50;99.90;;;;;;5030809;28;20225;-68
2023/05/10 01:46:21;;;;;;;0.50;0.30;;;14.40;99.90;;;;;;5032104;28;20622;-68
2023/05/10 01:48:55;;;;;;;0.50;0.30;;;14.30;99.90;;;;;;5027990;28;20235;-69
2023/05/10 01:51:26;;;;;;;0.80;0.73;;;14.20;99.90;;;;;;5028735;28;20235;-69
2023/05/10 01:54:01;;;;;;;0.60;0.40;;;14.30;99.90;;;;;;5028627;28;20296;-68
2023/05/10 01:56:32;;;;;;;0.50;0.30;;;14.20;99.90;;;;;;5029323;28;20238;-69
2023/05/10 01:59:01;;;;;;;0.50;0.40;;;14.10;99.90;;;;;;5031700;28;20215;-68
2023/05/10 02:01:30;;;;;;;0.50;0.30;;;14.10;99.90;;;;;;5022798;28;20315;-68
2023/05/10 02:04:00;;;;;;;0.50;0.30;;;14.20;99.90;;;;;;5024638;28;20308;-68
2023/05/10 02:06:28;;;;;;;8.43;1.38;;;14.20;99.90;;;;;;5025495;28;20200;-69
2023/05/10 02:08:57;;;;;;;0.60;0.60;;;14.30;99.90;;;;;;5028151;28;20694;-68
2023/05/10 02:11:26;;;;;;;0.50;0.30;;;14.30;99.90;;;;;;5032835;28;20318;-68
2023/05/10 02:13:55;;;;;;;0.50;0.30;;;14.40;99.90;;;;;;5026107;28;20291;-68
2023/05/10 02:16:27;;;;;;;0.60;0.50;;;14.30;99.90;;;;;;5034297;28;20318;-69
2023/05/10 02:18:58;;;;;;;0.50;0.40;;;14.40;99.90;;;;;;5049193;28;20211;-69
2023/05/10 02:21:28;;;;;;;0.50;0.30;;;14.50;99.90;;;;;;5038179;28;20307;-69
2023/05/10 02:23:58;;;;;;;0.50;0.40;;;14.50;99.90;;;;;;5025246;28;20778;-69
2023/05/10 02:26:27;;;;;;;0.50;0.30;;;14.70;99.90;;;;;;5025883;28;20200;-69
2023/05/10 02:28:58;;;;;;;0.50;0.40;;;14.60;99.90;;;;;;5028999;28;20208;-69
2023/05/10 02:31:26;;;;;;;0.50;0.30;;;14.60;99.90;;;;;;5027075;28;20298;-69
2023/05/10 02:33:55;;;;;;;0.50;0.30;;;14.60;99.90;;;;;;5025484;28;20665;-70
2023/05/10 02:36:23;;;;;;;0.50;0.30;;;14.60;99.90;;;;;;5029694;28;20215;-68
2023/05/10 02:38:53;;;;;;;0.50;0.40;;;14.50;99.90;;;;;;5027103;28;20284;-69
2023/05/10 02:41:23;;;;;;;1.35;0.77;;;14.40;99.90;;;;;;5023830;28;20260;-69
2023/05/10 02:43:53;;;;;;;0.50;0.30;;;14.50;99.90;;;;;;5022450;28;20409;-69
2023/05/10 02:46:21;;;;;;;0.50;0.30;;;14.50;99.90;;;;;;5028213;28;20208;-69
2023/05/10 02:48:49;;;;;;;0.50;0.40;;;14.60;99.90;;;;;;5023550;28;20208;-70
2023/05/10 02:51:19;;;;;;;0.50;0.40;;;14.70;99.90;;;;;;5024407;28;20307;-70
2023/05/10 02:53:49;;;;;;;0.50;0.40;;;15.00;99.90;;;;;;5024071;28;20201;-70
2023/05/10 02:56:24;;;;;;;0.50;0.30;;;15.00;99.90;;;;;;5027455;28;20235;-70
2023/05/10 02:58:53;;;;;;;0.57;0.40;;;15.00;99.90;;;;;;5027000;28;20196;-70
2023/05/10 03:01:21;;;;;;;0.50;0.30;;;15.00;99.90;;;;;;5027649;28;20684;-69
2023/05/10 03:03:49;;;;;;;0.50;0.30;;;15.00;99.90;;;;;;5026364;28;20228;-69
2023/05/10 03:06:17;;;;;;;0.50;0.30;;;14.90;99.90;;;;;;5023740;28;20284;-69
2023/05/10 03:08:45;;;;;;;0.50;0.30;;;14.90;99.90;;;;;;5019366;28;20213;-69
2023/05/10 03:11:32;;;;;;;0.50;0.30;;;14.90;99.90;;;;;;5025954;28;20232;-70
2023/05/10 03:14:11;;;;;;;0.50;0.30;;;14.90;99.90;;;;;;5033013;28;20225;-69
2023/05/10 03:16:46;;;;;;;0.50;0.30;;;14.90;99.90;;;;;;5026520;28;20346;-69
2023/05/10 03:19:20;;;;;;;0.50;0.30;;;14.90;99.90;;;;;;5029174;28;20243;-69
2023/05/10 03:21:52;;;;;;;0.60;0.40;;;14.90;99.90;;;;;;5026523;28;20644;-69
2023/05/10 03:24:24;;;;;;;0.50;0.30;;;14.90;99.90;;;;;;5023967;28;20260;-69
2023/05/10 03:26:57;;;;;;;0.60;0.40;;;14.70;99.90;;;;;;5025157;28;20284;-69
2023/05/10 03:29:27;;;;;;;0.50;0.40;;;14.70;99.90;;;;;;5026235;28;20205;-70
2023/05/10 03:31:55;;;;;;;0.70;0.55;;;14.70;99.90;;;;;;5026387;28;20251;-70
2023/05/10 03:34:24;;;;;;;0.50;0.30;;;14.70;99.90;;;;;;5025072;28;20196;-70
2023/05/10 03:36:53;;;;;;;0.50;0.30;;;14.70;99.90;;;;;;5022141;28;20732;-71
2023/05/10 03:39:21;;;;;;;0.50;0.40;;;14.70;99.90;;;;;;5024248;28;20209;-69
2023/05/10 03:41:49;;;;;;;0.50;0.40;;;14.80;99.90;;;;;;5025365;28;20309;-69
2023/05/10 03:44:18;;;;;;;0.50;0.30;;;14.80;99.90;;;;;;5033912;28;20303;-69
2023/05/10 03:46:46;;;;;;;0.90;0.60;;;14.70;99.90;;;;;;5028522;28;20672;-70
2023/05/10 03:49:14;;;;;;;0.50;0.40;;;14.80;99.90;;;;;;5029395;28;20215;-69
2023/05/10 03:51:42;;;;;;;0.50;0.40;;;14.80;99.90;;;;;;5029414;28;20675;-69
2023/05/10 03:54:10;;;;;;;0.50;0.40;;;14.80;99.90;;;;;;5038042;28;20301;-70
2023/05/10 03:56:38;;;;;;;0.50;0.40;;;14.80;99.90;;;;;;5028345;28;20287;-70
2023/05/10 03:59:07;;;;;;;0.60;0.40;;;14.70;99.90;;;;;;5028925;28;20235;-69
2023/05/10 04:01:36;;;;;;;0.50;0.40;;;14.70;99.90;;;;;;5028052;28;20231;-69
2023/05/10 04:04:04;;;;;;;0.50;0.40;;;14.70;99.90;;;;;;5029620;28;20224;-69
2023/05/10 04:06:32;;;;;;;0.60;0.40;;;14.70;99.90;;;;;;5027112;28;20205;-69
2023/05/10 04:09:03;;;;;;;0.50;0.40;;;14.60;99.90;;;;;;5026812;28;20892;-69
2023/05/10 04:11:31;;;;;;;0.50;0.30;;;14.60;99.90;;;;;;5030327;28;20224;-70
2023/05/10 04:13:59;;;;;;;0.60;0.50;;;14.70;99.90;;;;;;5031168;28;20674;-71
2023/05/10 04:16:27;;;;;;;0.50;0.30;;;14.60;99.90;;;;;;5044868;28;20239;-71
2023/05/10 04:18:57;;;;;;;0.50;0.30;;;14.60;99.90;;;;;;5046999;28;20220;-71
2023/05/10 04:21:25;;;;;;;0.60;0.40;;;14.60;99.90;;;;;;5040474;28;20251;-69
2023/05/10 04:23:52;;;;;;;0.50;0.40;;;14.70;99.90;;;;;;5031338;28;20236;-69
2023/05/10 04:26:21;;;;;;;0.60;0.40;;;14.60;99.90;;;;;;5022292;28;20295;-69
2023/05/10 04:28:49;;;;;;;0.50;0.30;;;14.60;99.90;;;;;;5035186;28;20203;-69
2023/05/10 04:31:18;;;;;;;0.50;0.40;;;14.50;99.90;;;;;;5045510;28;20705;-70
2023/05/10 04:33:46;;;;;;;0.50;0.30;;;14.50;99.90;;;;;;5054138;28;20643;-70
2023/05/10 04:36:15;;;;;;;0.60;0.40;;;14.50;99.90;;;;;;5054068;28;20287;-70
2023/05/10 04:38:43;;;;;;;0.50;0.40;;;14.40;99.90;;;;;;5051644;28;20208;-70
2023/05/10 04:41:12;;;;;;;0.60;0.50;;;14.30;99.90;;;;;;5042386;28;20782;-70
2023/05/10 04:43:40;;;;;;;0.50;0.40;;;14.40;99.90;;;;;;5034220;28;20269;-69
2023/05/10 04:46:07;;;;;;;0.50;0.30;;;14.30;99.90;;;;;;5052132;28;20262;-69
2023/05/10 04:48:35;;;;;;;0.50;0.40;;;14.10;99.90;;;;;;5042318;28;20224;-72
2023/05/10 04:51:04;;;;;;;0.52;0.43;;;14.10;99.90;;;;;;5030592;28;20702;-72
2023/05/10 04:53:33;;;;;;;0.60;0.40;;;14.10;99.90;;;;;;5031829;28;20223;-68
2023/05/10 04:56:01;;;;;;;0.50;0.30;;;14.00;99.90;;;;;;5027431;28;20232;-70
2023/05/10 04:58:29;;;;;;;0.63;0.50;;;14.10;99.90;;;;;;5037896;28;20641;-69
2023/05/10 05:00:57;;;;;;;0.50;0.30;;;14.10;99.90;;;;;;5053463;28;20234;-69
2023/05/10 05:03:25;;;;;;;0.52;0.43;;;14.00;99.90;;;;;;5053916;28;20246;-69
2023/05/10 05:05:53;;;;;;;0.50;0.40;;;13.80;99.90;;;;;;5053892;28;20216;-69
2023/05/10 05:08:21;;;;;;;0.60;0.40;;;13.90;99.90;;;;;;5053816;28;20295;-69
2023/05/10 05:10:50;;;;;;;0.60;0.50;;;13.80;99.90;;;;;;5053551;28;20781;-70
2023/05/10 05:13:19;;;;;;;0.57;0.47;;;13.80;99.90;;;;;;5033251;28;20236;-70
2023/05/10 05:15:47;;;;;;;0.60;0.55;;;13.70;99.90;;;;;;5043232;28;20236;-69
2023/05/10 05:18:15;;;;;;;0.90;0.90;;;13.80;99.90;;;;;;5053296;28;20208;-70
2023/05/10 05:20:43;;;;;;;0.60;0.50;;;13.70;99.90;;;;;;5053181;28;20318;-70
2023/05/10 05:23:10;;;;;;;0.50;0.40;;;13.80;99.90;;;;;;5053287;28;20207;-70
2023/05/10 05:25:39;;;;;;;0.50;0.35;;;13.80;99.90;;;;;;5053343;28;20313;-69
2023/05/10 05:28:08;;;;;;;0.50;0.40;;;13.90;99.90;;;;;;5053117;28;20291;-70
2023/05/10 05:30:36;;;;;;;0.68;0.40;;;14.00;99.90;;;;;;5047346;28;20299;-70
2023/05/10 05:33:04;;;;;;;0.50;0.40;;;14.10;99.90;;;;;;5048139;28;20209;-70
2023/05/10 05:35:32;;;;;;;0.50;0.40;;;14.30;99.90;;;;;;5053174;28;20564;-70
2023/05/10 05:38:00;;;;;;;0.57;0.47;;;14.40;99.90;;;;;;5052926;28;20290;-70
2023/05/10 05:40:27;;;;;;;0.50;0.40;;;14.50;99.90;;;;;;5050227;28;20232;-70
2023/05/10 05:42:55;;;;;;;0.60;0.50;;;14.50;99.90;;;;;;5031988;28;20264;-70
2023/05/10 05:45:24;;;;;;;0.80;0.70;;;14.40;99.90;;;;;;5045400;28;20307;-70
2023/05/10 05:47:52;;;;;;;1.08;0.98;;;14.50;99.90;;;;;;5042115;28;20236;-70
2023/05/10 05:50:20;;;;;;;0.90;0.80;;;14.30;99.90;;;;;;5036656;28;20211;-70
2023/05/10 05:52:48;;;;;;;0.70;0.43;;;14.40;99.90;;;;;;5052873;28;20212;-70
2023/05/10 05:55:16;;;;;;;0.50;0.40;;;14.40;99.90;;;;;;5052858;28;20200;-70
2023/05/10 05:57:45;;;;;;;1.92;0.98;;;14.50;99.90;;;;;;5052530;28;20278;-70
2023/05/10 06:00:14;;;;;;;0.50;0.40;;;14.60;99.90;;;;;;5052210;28;20266;-70
2023/05/10 06:02:43;;;;;;;0.50;0.40;;;14.50;99.90;;;;;;5045583;28;20228;-70
2023/05/10 06:05:11;;;;;;;0.60;0.50;;;14.60;99.90;;;;;;5052811;28;20577;-70
2023/05/10 06:07:41;;;;;;;0.60;0.47;;;14.70;99.90;;;;;;5052415;28;20678;-70
2023/05/10 06:10:10;;;;;;;0.50;0.43;;;14.50;99.90;;;;;;5052360;28;20294;-70
2023/05/10 06:12:37;;;;;;;0.60;0.40;;;14.60;99.90;;;;;;5038043;28;20256;-70
2023/05/10 06:15:06;;;;;;;0.70;0.50;;;14.50;99.90;;;;;;5042154;28;20214;-70
2023/05/10 06:17:34;;;;;;;0.77;0.63;;;14.50;99.90;;;;;;5052494;28;20302;-70
2023/05/10 06:20:04;;;;;;;0.77;0.50;;;14.50;99.90;;;;;;5044955;28;20254;-70
2023/05/10 06:22:32;;;;;;;0.60;0.40;;;14.30;99.90;;;;;;5052292;28;20345;-69
2023/05/10 06:25:00;;;;;;;0.50;0.40;;;14.50;99.90;;;;;;5052136;28;20301;-69
2023/05/10 06:27:28;;;;;;;0.60;0.47;;;14.60;99.90;;;;;;5052325;28;20195;-69
2023/05/10 06:29:56;;;;;;;0.75;0.75;;;14.70;99.90;;;;;;5051713;28;20214;-70
2023/05/10 06:32:39;;;;;;;0.60;0.40;;;14.70;99.90;;;;;;5052344;28;20694;-69
2023/05/10 06:35:09;;;;;;;0.60;0.40;;;14.70;99.90;;;;;;5042277;28;20210;-69
2023/05/10 06:37:37;;;;;;;0.50;0.40;;;14.80;99.90;;;;;;5046534;28;20269;-70
2023/05/10 06:40:07;;;;;;;0.63;0.47;;;14.80;99.90;;;;;;5051582;28;20671;-69
2023/05/10 06:42:36;;;;;;;0.50;0.40;;;14.90;99.90;;;;;;5078054;22;20309;-65
2023/05/10 06:45:05;;;;;;;0.70;0.50;;;14.70;99.90;;;;;;5061711;28;20623;-64
2023/05/10 06:47:33;;;;;;;0.50;0.40;;;14.80;99.90;;;;;;5051537;28;20633;-64
2023/05/10 06:50:05;;;;;;;0.50;0.40;;;14.90;99.90;;;;;;5051650;28;20212;-65
2023/05/10 06:52:34;;;;;;;0.70;0.63;;;15.00;99.90;;;;;;5040048;28;20674;-65
2023/05/10 06:55:03;;;;;;;0.60;0.50;;;15.00;99.90;;;;;;5031640;28;20304;-65
2023/05/10 06:57:31;;;;;;;0.60;0.50;;;15.00;99.90;;;;;;5031709;28;20292;-65
2023/05/10 06:59:59;;;;;;;2.00;1.05;;;15.20;99.90;;;;;;5031464;28;20215;-65
2023/05/10 07:02:27;;;;;;;0.50;0.40;;;15.20;99.90;;;;;;5031420;28;20246;-64
2023/05/10 07:04:55;;;;;;;0.50;0.40;;;15.10;99.90;;;;;;5031405;28;20216;-65
2023/05/10 07:07:23;;;;;;;0.60;0.50;;;15.10;99.90;;;;;;5031374;28;20225;-65
2023/05/10 07:09:52;;;;;;;0.93;0.65;;;15.10;99.90;;;;;;5031462;28;20270;-64
2023/05/10 07:12:20;;;;;;;0.70;0.50;;;15.00;99.90;;;;;;5039450;28;20770;-64
2023/05/10 07:14:48;;;;;;;0.70;0.60;;;15.00;99.90;;;;;;5031394;28;20212;-65
2023/05/10 07:17:16;;;;;;;0.50;0.40;;;15.10;99.90;;;;;;5031297;28;20607;-65
2023/05/10 07:19:44;;;;;;;0.60;0.40;;;15.10;99.90;;;;;;5031191;28;20236;-65
2023/05/10 07:22:12;;;;;;;0.60;0.40;;;15.30;99.90;;;;;;5030852;28;20275;-65
2023/05/10 07:24:40;;;;;;;0.75;0.60;;;15.50;99.90;;;;;;5031295;28;20636;-65
2023/05/10 07:27:09;;;;;;;0.60;0.40;;;15.60;99.90;;;;;;5030905;28;20728;-65
2023/05/10 07:29:37;;;;;;;0.50;0.40;;;15.60;99.90;;;;;;5031132;28;20240;-65
2023/05/10 07:32:06;;;;;;;0.60;0.52;;;15.70;99.90;;;;;;5030887;28;20714;-65
2023/05/10 07:34:34;;;;;;;0.90;0.90;;;15.70;99.90;;;;;;5031216;28;20215;-65
2023/05/10 07:37:02;;;;;;;0.82;0.60;;;15.60;99.90;;;;;;5031030;28;20552;-65
2023/05/10 07:39:30;;;;;;;0.90;0.50;;;15.50;99.90;;;;;;5030876;28;20284;-65
2023/05/10 07:41:58;;;;;;;0.60;0.52;;;15.50;99.90;;;;;;5038950;28;20268;-65
2023/05/10 07:44:27;;;;;;;0.60;0.40;;;15.60;99.90;;;;;;5046732;28;20240;-65
2023/05/10 07:46:55;;;;;;;0.50;0.30;;;15.70;99.90;;;;;;5030905;28;20597;-67
2023/05/10 07:49:24;;;;;;;0.52;0.40;;;15.80;99.90;;;;;;5030014;28;20200;-66
2023/05/10 07:51:52;;;;;;;0.60;0.40;;;15.90;99.90;;;;;;5030620;28;20311;-65
2023/05/10 07:54:20;;;;;;;0.60;0.40;;;15.90;99.90;;;;;;5030284;28;20236;-65
2023/05/10 07:56:48;;;;;;;0.60;0.50;;;15.80;99.90;;;;;;5030912;28;20200;-65
2023/05/10 07:59:17;;;;;;;0.50;0.40;;;16.00;99.90;;;;;;5030634;28;20208;-66
2023/05/10 08:01:46;;;;;;;1.10;0.60;;;16.00;99.90;;;;;;5030584;28;20259;-65
2023/05/10 08:04:15;;;;;;;0.50;0.40;;;16.10;99.90;;;;;;5030332;28;20747;-65
2023/05/10 08:06:43;;;;;;;0.50;0.40;;;16.30;99.90;;;;;;5030685;28;20226;-65
2023/05/10 08:09:11;;;;;;;0.50;0.40;;;16.30;99.90;;;;;;5030310;28;20212;-65
2023/05/10 08:11:38;;;;;;;0.70;0.40;;;16.40;99.90;;;;;;5036245;28;20239;-65
2023/05/10 08:14:06;;;;;;;0.50;0.50;;;16.40;99.90;;;;;;5040580;28;20239;-65
2023/05/10 08:16:34;;;;;;;0.60;0.57;;;16.30;99.90;;;;;;5030708;28;20210;-65
2023/05/10 08:19:04;;;;;;;0.50;0.30;;;16.40;99.90;;;;;;5030144;28;20291;-65
2023/05/10 08:21:32;;;;;;;0.60;0.40;;;16.30;99.90;;;;;;5030297;28;20228;-65
2023/05/10 08:24:00;;;;;;;0.77;0.40;;;16.40;99.90;;;;;;5030466;28;20236;-65
2023/05/10 08:26:28;;;;;;;0.50;0.40;;;16.40;99.90;;;;;;5030867;28;20274;-65
2023/05/10 08:28:56;;;;;;;0.93;0.93;;;16.40;99.90;;;;;;5030480;28;20299;-65
2023/05/10 08:31:24;;;;;;;0.50;0.40;;;16.30;99.90;;;;;;5030019;28;20204;-65
2023/05/10 08:33:52;;;;;;;0.57;0.43;;;16.40;99.90;;;;;;5030465;28;20222;-65
2023/05/10 08:36:23;;;;;;;0.50;0.40;;;16.40;99.90;;;;;;5025009;28;20291;-65
2023/05/10 08:38:52;;;;;;;0.60;0.40;;;16.50;99.90;;;;;;5030457;28;20208;-65
2023/05/10 08:41:21;;;;;;;0.55;0.45;;;16.50;99.90;;;;;;5029566;28;20735;-65
2023/05/10 08:43:49;;;;;;;0.50;0.40;;;16.50;99.90;;;;;;5030497;28;20215;-65
2023/05/10 08:46:18;;;;;;;0.50;0.30;;;16.60;99.90;;;;;;5030367;28;20619;-65
2023/05/10 08:48:47;;;;;;;0.50;0.40;;;16.60;99.90;;;;;;5030413;28;20291;-65
2023/05/10 08:51:18;;;;;;;0.70;0.50;;;16.80;99.90;;;;;;5029621;28;20335;-65
2023/05/10 08:53:47;;;;;;;0.60;0.40;;;16.80;99.90;;;;;;5030449;28;20208;-65
2023/05/10 08:56:17;;;;;;;0.57;0.47;;;16.80;99.90;;;;;;5030327;28;20299;-65
2023/05/10 08:58:45;;;;;;;0.50;0.40;;;16.90;99.90;;;;;;5030283;28;20204;-65
2023/05/10 09:01:15;;;;;;;0.50;0.40;;;17.00;99.90;;;;;;5029898;28;20617;-65
2023/05/10 09:03:44;;;;;;;0.60;0.43;;;17.20;99.90;;;;;;5030201;28;20200;-65
2023/05/10 09:06:14;;;;;;;0.60;0.50;;;17.40;99.90;;;;;;5031550;28;20208;-65
2023/05/10 09:08:42;;;;;;;0.75;0.40;;;17.70;99.90;;;;;;5033494;28;20279;-66
2023/05/10 09:11:13;;;;;;;0.68;0.40;;;17.80;99.90;;;;;;5033220;28;20270;-65
2023/05/10 09:13:43;;;;;;;0.60;0.47;;;18.00;99.90;;;;;;5041895;28;20243;-65
2023/05/10 09:16:11;;;;;;;0.75;0.60;;;18.00;99.90;;;;;;5033653;28;20209;-65
2023/05/10 09:18:49;;;;;;;0.93;0.52;;;17.90;99.90;;;;;;5033850;28;20200;-65
2023/05/10 09:21:17;;;;;;;0.50;0.38;;;17.50;99.90;;;;;;5033000;28;20727;-65
2023/05/10 09:23:46;;;;;;;0.50;0.40;;;17.30;99.90;;;;;;5033083;28;20674;-65
2023/05/10 09:26:17;;;;;;;0.50;0.30;;;16.90;99.90;;;;;;5033522;28;20822;-65
2023/05/10 09:28:53;;;;;;;0.50;0.30;;;16.60;99.90;;;;;;5033576;28;20259;-64
2023/05/10 09:31:21;;;;;;;0.60;0.40;;;16.40;99.90;;;;;;5024979;28;20235;-64
2023/05/10 09:33:50;;;;;;;0.60;0.40;;;16.40;99.90;;;;;;5033404;28;20208;-64
2023/05/10 09:36:18;;;;;;;0.60;0.50;;;16.30;99.90;;;;;;5033249;28;20203;-64
2023/05/10 09:38:47;;;;;;;0.50;0.40;;;16.30;99.90;;;;;;5033215;28;20246;-64
2023/05/10 09:41:21;;;;;;;0.65;0.40;;;16.40;99.90;;;;;;5032670;28;21459;-64
2023/05/10 09:43:49;;;;;;;0.50;0.40;;;16.30;99.90;;;;;;5041438;28;20258;-64
2023/05/10 09:46:17;;;;;;;0.50;0.30;;;16.20;99.90;;;;;;5031382;28;20258;-64
2023/05/10 09:48:48;;;;;;;0.75;0.55;;;16.30;99.90;;;;;;5032796;28;20861;-64
2023/05/10 09:51:22;;;;;;;0.60;0.47;;;16.30;99.90;;;;;;5032414;28;20221;-65
2023/05/10 09:54:10;;;;;;;0.90;0.57;;;16.40;99.90;;;;;;5032409;28;20741;-64
2023/05/10 09:56:40;;;;;;;0.60;0.40;;;16.60;99.90;;;;;;5027483;28;20208;-65
2023/05/10 09:59:10;;;;;;;0.70;0.40;;;16.80;99.90;;;;;;5032609;28;20243;-64
2023/05/10 10:01:38;;;;;;;0.50;0.40;;;16.90;99.90;;;;;;5032394;28;20286;-64
2023/05/10 10:04:08;;;;;;;0.50;0.30;;;16.90;99.90;;;;;;5032652;28;20779;-65
2023/05/10 10:06:37;;;;;;;0.60;0.47;;;16.60;99.90;;;;;;5030331;28;20270;-64
2023/05/10 10:09:06;;;;;;;0.50;0.40;;;16.20;99.90;;;;;;5032377;28;20223;-65
2023/05/10 10:11:36;;;;;;;0.50;0.30;;;15.80;99.90;;;;;;5032257;28;20225;-64
2023/05/10 10:14:06;;;;;;;0.50;0.30;;;15.70;99.90;;;;;;5032361;28;20207;-64
2023/05/10 10:16:33;;;;;;;0.50;0.30;;;15.60;99.90;;;;;;5037704;28;20231;-64
2023/05/10 10:19:01;;;;;;;0.50;0.40;;;15.40;99.90;;;;;;5051475;28;20815;-65
2023/05/10 10:21:30;;;;;;;0.50;0.40;;;15.30;99.90;;;;;;5032122;28;20211;-65
2023/05/10 10:23:58;;;;;;;0.60;0.40;;;15.40;99.90;;;;;;5032011;28;20208;-64
2023/05/10 10:26:26;;;;;;;0.55;0.45;;;15.60;99.90;;;;;;5032507;28;20224;-64
2023/05/10 10:29:08;;;;;;;1.08;0.40;;;15.70;99.90;;;;;;5032334;28;20303;-64
2023/05/10 10:31:45;;;;;;;0.60;0.60;;;15.80;99.90;;;;;;5025954;28;20415;-65
2023/05/10 10:34:26;;;;;;;0.50;0.38;;;16.00;99.90;;;;;;5032078;28;20215;-64
2023/05/10 10:36:56;;;;;;;0.50;0.40;;;16.00;99.90;;;;;;5032300;28;20231;-64
2023/05/10 10:39:25;;;;;;;0.50;0.40;;;16.10;99.90;;;;;;5031537;28;20201;-64
2023/05/10 10:41:55;;;;;;;0.50;0.40;;;16.30;99.90;;;;;;5030668;28;20241;-64
2023/05/10 10:44:33;;;;;;;0.50;0.30;;;16.20;99.90;;;;;;5032082;28;20258;-65
2023/05/10 10:47:27;;;;;;;0.50;0.30;;;16.50;99.90;;;;;;5040611;28;20746;-64
2023/05/10 10:50:05;;;;;;;0.50;0.30;;;16.70;99.90;;;;;;5043850;28;20283;-64
2023/05/10 10:52:34;;;;;;;0.50;0.40;;;17.00;99.90;;;;;;5025247;28;20227;-64
2023/05/10 10:55:05;;;;;;;1.48;0.70;;;17.10;99.90;;;;;;5031677;28;20212;-65
2023/05/10 10:57:34;;;;;;;0.50;0.30;;;17.50;99.90;;;;;;5031479;28;20200;-65
2023/05/10 11:00:22;;;;;;;0.50;0.30;;;17.60;99.90;;;;;;5031555;28;20238;-64
2023/05/10 11:02:53;;;;;;;0.50;0.40;;;17.40;99.90;;;;;;5031599;28;20316;-65
2023/05/10 11:05:37;;;;;;;0.50;0.40;;;17.40;99.90;;;;;;5032007;28;20223;-65
2023/05/10 11:08:14;;;;;;;0.60;0.40;;;17.60;99.90;;;;;;5031527;28;20228;-65
2023/05/10 11:10:55;;;;;;;0.50;0.30;;;17.70;99.90;;;;;;5031358;28;20243;-65
2023/05/10 11:13:31;;;;;;;0.50;0.40;;;17.60;99.90;;;;;;5031286;28;20224;-65
2023/05/10 11:16:00;;;;;;;0.50;0.30;;;17.50;99.90;;;;;;5031776;28;20295;-66
2023/05/10 11:18:31;;;;;;;0.50;0.40;;;17.50;99.90;;;;;;5051241;28;20234;-65
2023/05/10 11:21:02;;;;;;;0.50;0.30;;;17.40;99.90;;;;;;5034111;28;20212;-65
2023/05/10 11:23:32;;;;;;;0.50;0.30;;;17.40;99.90;;;;;;5031365;28;20271;-65
2023/05/10 11:26:01;;;;;;;0.50;0.30;;;17.50;99.90;;;;;;5030871;28;20675;-65
2023/05/10 11:28:29;;;;;;;0.50;0.40;;;17.50;99.90;;;;;;5030868;28;20216;-65
2023/05/10 11:30:57;;;;;;;0.50;0.40;;;17.80;99.90;;;;;;5031030;28;20636;-65
2023/05/10 11:33:25;;;;;;;0.60;0.40;;;17.70;99.90;;;;;;5031271;28;20254;-65
2023/05/10 11:35:55;;;;;;;0.50;0.30;;;17.70;99.90;;;;;;5031254;28;20255;-65
2023/05/10 11:38:22;;;;;;;0.55;0.40;;;17.70;99.90;;;;;;5023375;28;20283;-65
2023/05/10 11:40:53;;;;;;;0.60;0.47;;;17.70;99.90;;;;;;5030783;28;20266;-66
2023/05/10 11:43:27;;;;;;;0.50;0.40;;;17.90;99.90;;;;;;5022416;28;20613;-65
2023/05/10 11:45:55;;;;;;;0.50;0.40;;;18.10;99.90;;;;;;5031190;28;20666;-65
2023/05/10 11:48:23;;;;;;;0.50;0.30;;;18.10;99.90;;;;;;5031472;28;20303;-65
2023/05/10 11:50:52;;;;;;;0.50;0.30;;;18.20;99.90;;;;;;5030924;28;20263;-65
2023/05/10 11:53:22;;;;;;;0.50;0.40;;;18.30;99.90;;;;;;5030710;28;20243;-65
2023/05/10 11:55:52;;;;;;;0.60;0.40;;;18.30;99.90;;;;;;5031017;28;20255;-65
2023/05/10 11:58:21;;;;;;;0.60;0.40;;;18.40;99.90;;;;;;5030422;28;20200;-65
2023/05/10 12:00:50;;;;;;;0.50;0.30;;;18.60;99.90;;;;;;5030845;28;20208;-65
2023/05/10 12:03:18;;;;;;;0.50;0.30;;;19.10;99.90;;;;;;5030527;28;20259;-65
2023/05/10 12:05:46;;;;;;;0.57;0.40;;;19.50;99.90;;;;;;5030934;28;20204;-65
2023/05/10 12:08:15;;;;;;;0.75;0.40;;;20.00;99.90;;;;;;5030429;28;20313;-65
2023/05/10 12:10:44;;;;;;;0.60;0.40;;;19.80;99.90;;;;;;5030758;28;20254;-65
2023/05/10 12:13:14;;;;;;;0.50;0.30;;;19.60;99.90;;;;;;5030072;28;20242;-65
2023/05/10 12:15:42;;;;;;;0.50;0.30;;;19.40;99.90;;;;;;5030925;28;20287;-65
2023/05/10 12:18:11;;;;;;;0.60;0.40;;;19.50;99.90;;;;;;5048760;28;20803;-65
2023/05/10 12:20:40;;;;;;;0.50;0.32;;;19.50;99.90;;;;;;5036241;28;20352;-66
2023/05/10 12:23:10;;;;;;;0.50;0.30;;;19.80;99.90;;;;;;5030338;28;20236;-65
2023/05/10 12:25:39;;;;;;;0.50;0.40;;;20.10;99.90;;;;;;5030818;28;20291;-65
2023/05/10 12:28:10;;;;;;;0.50;0.30;;;20.20;99.90;;;;;;5030368;28;20291;-66
2023/05/10 12:30:38;;;;;;;0.50;0.30;;;20.10;99.90;;;;;;5030068;28;20228;-65
2023/05/10 12:33:10;;;;;;;0.50;0.35;;;20.20;99.90;;;;;;5030142;28;20600;-65
2023/05/10 12:35:46;;;;;;;0.50;0.40;;;20.40;99.90;;;;;;5030594;28;20209;-65
2023/05/10 12:38:29;;;;;;;0.50;0.30;;;20.60;99.90;;;;;;5030389;28;20294;-65
2023/05/10 12:40:58;;;;;;;0.50;0.38;;;20.70;99.90;;;;;;5031315;28;20211;-65
2023/05/10 12:43:27;;;;;;;0.50;0.40;;;20.20;99.90;;;;;;5071257;22;20232;-69
2023/05/10 12:45:56;;;;;;;0.50;0.30;;;20.00;99.90;;;;;;5053047;28;20326;-70
2023/05/10 12:48:24;;;;;;;0.50;0.40;;;19.50;99.90;;;;;;5034118;28;20674;-70
2023/05/10 12:50:51;;;;;;;0.60;0.40;;;19.20;99.90;;;;;;5049925;28;20230;-69
2023/05/10 12:53:19;;;;;;;0.50;0.30;;;19.10;99.90;;;;;;5053607;28;20219;-70
2023/05/10 12:55:47;;;;;;;0.60;0.40;;;18.90;99.90;;;;;;5054084;28;20295;-70
2023/05/10 12:58:15;;;;;;;0.50;0.40;;;18.70;99.90;;;;;;5053895;28;20239;-70
2023/05/10 13:01:04;;;;;;;0.55;0.40;;;18.50;99.90;;;;;;5046551;28;20558;-69
2023/05/10 13:03:32;;;;;;;0.50;0.40;;;18.50;99.90;;;;;;5053794;28;20229;-69